Irini — SV4194 — position and weather

sailwx.info

Track history (hours):
 
Tides and Currents Weather Stations Pressure Air Temp Water Temp Dewpoint Dewpoint Depression Visibility Wind Speed Wind Dir Waves Ship Positions

Irini

Last reported at 2017-Nov-24 01:52 UTC. Time now 2017-Nov-24 02:19 UTC.
Position N 36°02' E 026°56'.

Length 63 m; draft 4 m.

Type: Cargo ship. MMSI: 237087500.

Date/timePositionNaut miles runAvg speedWind from/ knotsBaromVisibWave heightAir tempDewpointWater temp
2017-Nov-24 01:52N 36°02' E 026°56'3 8.0
2017-Nov-24 01:30N 36°04' E 026°53'4 8.0
2017-Nov-24 00:59N 36°07' E 026°49'5 8.0
2017-Nov-24 00:23N 36°10' E 026°44'3 7.7
2017-Nov-23 23:59N 36°12' E 026°41'4 7.9
2017-Nov-23 23:28N 36°14' E 026°37'4 8.0
2017-Nov-23 23:00N 36°16' E 026°34'4 8.0
2017-Nov-23 22:30N 36°19' E 026°30'4 7.7
2017-Nov-23 22:00N 36°21' E 026°26'4 7.8
2017-Nov-23 21:30N 36°23' E 026°22'4 8.0
2017-Nov-23 21:01N 36°26' E 026°18'4 7.6
2017-Nov-23 20:30N 36°28' E 026°14'4 7.5
2017-Nov-23 20:00N 36°30' E 026°10'4 7.5
2017-Nov-23 19:31N 36°32' E 026°06'4 7.5
2017-Nov-23 19:00N 36°34' E 026°03'4 7.5
2017-Nov-23 18:30N 36°36' E 025°59'4 7.5
2017-Nov-23 18:00N 36°38' E 025°55'4 7.3
2017-Nov-23 17:30N 36°40' E 025°51'4 7.3
2017-Nov-23 17:01N 36°42' E 025°47'4 7.4
2017-Nov-23 16:30N 36°44' E 025°43'4 7.5
2017-Nov-23 16:00N 36°46' E 025°39'4 7.6
2017-Nov-23 15:30N 36°48' E 025°35'4 7.4
2017-Nov-23 15:00N 36°50' E 025°31'4 7.5
2017-Nov-23 14:31N 36°53' E 025°28'4 7.8
2017-Nov-23 14:01N 36°56' E 025°25'4 7.8
2017-Nov-23 13:30N 36°59' E 025°22'4 7.6
2017-Nov-23 13:00N 37°03' E 025°20'4 7.7
2017-Nov-23 12:30N 37°06' E 025°19'4 7.6
2017-Nov-23 12:00N 37°10' E 025°17'4 7.1
2017-Nov-23 11:30N 37°10' E 025°13'4 7.6
2017-Nov-23 10:58N 37°07' E 025°09'8 0.7
2017-Nov-22 23:45N 37°07' E 025°19'2 8.6
2017-Nov-22 23:31N 37°05' E 025°20'4 8.6
2017-Nov-22 23:00N 37°00' E 025°21'4 8.6
2017-Nov-22 22:30N 36°57' E 025°24'4 7.9
2017-Nov-22 22:00N 36°55' E 025°28'4 8.6
2017-Nov-22 21:30N 36°55' E 025°34'2 3.5
2017-Nov-22 20:57N 36°56' E 025°36'0 0.0
2017-Nov-22 20:30N 36°56' E 025°36'0 0.0
2017-Nov-22 20:00N 36°56' E 025°36'0 0.0
2017-Nov-22 19:30N 36°56' E 025°36'  
2017-Nov-19 18:24N 37°05' E 025°09'0 0.1
2017-Nov-19 14:42N 37°05' E 025°08'1 4.0
2017-Nov-19 14:30N 37°06' E 025°07'5 7.8
2017-Nov-19 13:53N 37°09' E 025°11'3 7.6
2017-Nov-19 13:30N 37°12' E 025°13'4 7.3
2017-Nov-19 13:00N 37°15' E 025°15'4 7.9
2017-Nov-19 12:30N 37°19' E 025°16'4 7.8
2017-Nov-19 12:00N 37°23' E 025°17'4 7.4
2017-Nov-19 11:30N 37°27' E 025°17'2 3.7
2017-Nov-19 10:58N 37°28' E 025°20'0 0.0
2017-Nov-19 10:28N 37°28' E 025°20'0 0.0
2017-Nov-19 09:58N 37°28' E 025°20'0 0.0
2017-Nov-19 09:28N 37°28' E 025°20'0 0.0
2017-Nov-19 08:58N 37°28' E 025°20'0 0.0
2017-Nov-19 08:28N 37°28' E 025°20'0 0.0
2017-Nov-19 07:58N 37°28' E 025°20'0 0.0
2017-Nov-19 07:28N 37°28' E 025°20'0 0.0
2017-Nov-19 06:58N 37°28' E 025°20'0 0.0
2017-Nov-19 06:28N 37°28' E 025°20'0 0.0
2017-Nov-19 05:58N 37°28' E 025°20'0 0.0
2017-Nov-19 05:28N 37°28' E 025°20'0 0.0
2017-Nov-19 04:58N 37°28' E 025°20'0 0.0
2017-Nov-19 04:28N 37°28' E 025°20'0 0.0
2017-Nov-19 03:58N 37°28' E 025°20'0 0.0
2017-Nov-19 03:28N 37°28' E 025°20'0 0.0
2017-Nov-19 02:58N 37°28' E 025°20'0 0.0
2017-Nov-19 02:01N 37°28' E 025°20'0 0.1
2017-Nov-19 01:58N 37°28' E 025°20'0 0.0
2017-Nov-19 01:28N 37°28' E 025°20'0 0.0
2017-Nov-19 00:58N 37°28' E 025°20'0 0.0
2017-Nov-19 00:28N 37°28' E 025°20'0 0.0
2017-Nov-18 23:58N 37°28' E 025°20'0 0.0
2017-Nov-18 23:28N 37°28' E 025°20'0 0.0
2017-Nov-18 22:58N 37°28' E 025°20'0 0.0
2017-Nov-18 22:28N 37°28' E 025°20'0 0.0
2017-Nov-18 21:58N 37°28' E 025°20'0 0.0
2017-Nov-18 21:28N 37°28' E 025°20'0 0.0
2017-Nov-18 20:58N 37°28' E 025°20'0 0.0
2017-Nov-18 20:28N 37°28' E 025°20'0 0.0
2017-Nov-18 19:58N 37°28' E 025°20'0 0.0
2017-Nov-18 19:28N 37°28' E 025°20'0 0.0
2017-Nov-18 18:58N 37°28' E 025°20'0 0.0
2017-Nov-18 18:28N 37°28' E 025°20'0 0.0
2017-Nov-18 17:52N 37°28' E 025°20'0 0.0
2017-Nov-18 17:28N 37°28' E 025°20'0 0.0
2017-Nov-18 16:58N 37°28' E 025°20'0 0.0
2017-Nov-18 16:28N 37°28' E 025°20'0 0.0
2017-Nov-18 15:55N 37°28' E 025°20'0 0.0
2017-Nov-18 15:28N 37°28' E 025°20'0 0.0
2017-Nov-18 14:58N 37°28' E 025°20'0 0.0
2017-Nov-18 14:28N 37°28' E 025°20'0 0.1
2017-Nov-18 13:56N 37°28' E 025°20'2 5.1
2017-Nov-18 13:30N 37°26' E 025°17'4 7.8
2017-Nov-18 13:00N 37°22' E 025°17'4 7.2
2017-Nov-18 12:30N 37°19' E 025°16'4 7.3
2017-Nov-18 12:00N 37°16' E 025°14'4 7.4
2017-Nov-18 11:30N 37°12' E 025°12'4 7.3
2017-Nov-18 10:54N 37°09' E 025°09'3 7.0
2017-Nov-18 10:30N 37°06' E 025°08'1 0.1
2017-Nov-17 19:41N 37°05' E 025°08'1 8.1
2017-Nov-17 19:30N 37°06' E 025°07'4 8.2
2017-Nov-17 19:00N 37°07' E 025°02'4 7.9
2017-Nov-17 18:30N 37°08' E 024°57'62 7.9
2017-Nov-17 10:41N 37°37' E 023°48'2 8.2
2017-Nov-17 10:28N 37°38' E 023°46'4 8.1
2017-Nov-17 10:00N 37°41' E 023°43'4 7.5
2017-Nov-17 09:30N 37°44' E 023°40'4 7.3
2017-Nov-17 09:00N 37°47' E 023°38'4 7.4
2017-Nov-17 08:30N 37°50' E 023°36'4 7.9
2017-Nov-17 08:00N 37°54' E 023°35'3 7.0
2017-Nov-17 07:30N 37°57' E 023°33'3 6.5
2017-Nov-17 07:00N 38°01' E 023°33'2 4.1
2017-Nov-17 06:30N 38°02' E 023°31'0 0.0
2017-Nov-17 06:00N 38°02' E 023°31'0 0.0
2017-Nov-17 05:30N 38°02' E 023°31'0 0.0
2017-Nov-17 05:00N 38°02' E 023°31'0 0.0
2017-Nov-17 04:30N 38°02' E 023°31'0 0.0
2017-Nov-17 04:00N 38°02' E 023°31'0 0.0
2017-Nov-17 03:30N 38°02' E 023°31'0 0.0
2017-Nov-17 03:00N 38°02' E 023°31'0 0.0
2017-Nov-17 02:30N 38°02' E 023°31'0 0.0
2017-Nov-17 02:00N 38°02' E 023°31'0 0.0
2017-Nov-17 01:30N 38°02' E 023°31'0 0.0
2017-Nov-17 01:00N 38°02' E 023°31'0 0.0
2017-Nov-17 00:30N 38°02' E 023°31'0 0.0
2017-Nov-17 00:00N 38°02' E 023°31'0 0.0
2017-Nov-16 23:30N 38°02' E 023°31'0 0.0
2017-Nov-16 23:00N 38°02' E 023°31'0 0.0
2017-Nov-16 22:30N 38°02' E 023°31'0 0.0
2017-Nov-16 22:00N 38°02' E 023°31'0 0.0
2017-Nov-16 21:30N 38°02' E 023°31'0 0.0
2017-Nov-16 20:54N 38°02' E 023°31'0 0.0
2017-Nov-16 20:27N 38°02' E 023°31'0 0.0
2017-Nov-16 20:00N 38°02' E 023°31'0 0.0
2017-Nov-16 19:30N 38°02' E 023°31'0 0.0
2017-Nov-16 19:00N 38°02' E 023°31'0 0.0
2017-Nov-16 18:30N 38°02' E 023°31'0 0.0
2017-Nov-16 18:00N 38°02' E 023°31'0 0.0
2017-Nov-16 17:30N 38°02' E 023°31'0 0.0
2017-Nov-16 17:00N 38°02' E 023°31'0 0.0
2017-Nov-16 16:30N 38°02' E 023°31'0 0.0
2017-Nov-16 15:57N 38°02' E 023°31'0 0.0
2017-Nov-16 15:30N 38°02' E 023°31'0 0.0
2017-Nov-16 15:00N 38°02' E 023°31'0 0.0
2017-Nov-16 14:30N 38°02' E 023°31'0 0.0
2017-Nov-16 14:00N 38°02' E 023°31'0 0.0
2017-Nov-16 13:30N 38°02' E 023°31'0 0.0
2017-Nov-16 13:00N 38°02' E 023°31'0 0.0
2017-Nov-16 12:30N 38°02' E 023°31'0 0.0
2017-Nov-16 12:00N 38°02' E 023°31'0 0.3
2017-Nov-16 11:28N 38°02' E 023°32'0 0.3
2017-Nov-16 10:58N 38°02' E 023°31'0 0.0
2017-Nov-16 10:28N 38°02' E 023°31'0 0.0
2017-Nov-16 09:58N 38°02' E 023°31'0 0.0
2017-Nov-16 09:25N 38°02' E 023°32'0 0.1
2017-Nov-16 08:58N 38°02' E 023°32'0 0.0
2017-Nov-16 08:28N 38°02' E 023°32'0 0.0
2017-Nov-16 07:58N 38°02' E 023°32'0 0.1
2017-Nov-16 07:25N 38°02' E 023°31'0 0.1
2017-Nov-16 06:58N 38°02' E 023°31'0 0.0
2017-Nov-16 06:28N 38°02' E 023°31'0 0.0
2017-Nov-16 05:55N 38°02' E 023°31'0 0.0
2017-Nov-16 05:28N 38°02' E 023°31'0 0.0
2017-Nov-16 04:58N 38°02' E 023°31'0 0.0
2017-Nov-16 04:28N 38°02' E 023°31'0 0.0
2017-Nov-16 03:58N 38°02' E 023°31'0 0.0
2017-Nov-16 03:28N 38°02' E 023°31'0 0.0
2017-Nov-16 02:58N 38°02' E 023°31'0 0.0
2017-Nov-16 02:28N 38°02' E 023°31'0 0.0
2017-Nov-16 01:58N 38°02' E 023°31'0 0.0
2017-Nov-16 01:28N 38°02' E 023°31'0 0.0
2017-Nov-16 00:58N 38°02' E 023°32'0 0.1
2017-Nov-16 00:28N 38°02' E 023°31'0 0.0
2017-Nov-15 23:58N 38°02' E 023°31'1 3.0
2017-Nov-15 23:30N 38°01' E 023°30'4 7.5
2017-Nov-15 23:00N 37°60' E 023°26'3 5.1
2017-Nov-15 22:30N 37°57' E 023°25'4 7.0
2017-Nov-15 22:00N 37°54' E 023°23'4 7.6
2017-Nov-15 21:30N 37°52' E 023°27'4 7.7
2017-Nov-15 21:00N 37°51' E 023°31'4 7.4
2017-Nov-15 20:30N 37°51' E 023°36'3 6.7
2017-Nov-15 20:00N 37°49' E 023°40'4 7.8
2017-Nov-15 19:30N 37°46' E 023°42'4 7.9
2017-Nov-15 19:00N 37°42' E 023°45'  
Track history (hours):
 
Tides and Currents Weather Stations Pressure Air Temp Water Temp Dewpoint Dewpoint Depression Visibility Wind Speed Wind Dir Waves Ship Positions

Irini

Last reported at 2017-Nov-24 01:52 UTC. Time now 2017-Nov-24 02:19 UTC.
Position N 36°02' E 026°56'.

Length 63 m; draft 4 m.

Type: Cargo ship. MMSI: 237087500.

Date/timePositionNaut miles runAvg speedWind from/ knotsBaromVisibWave heightAir tempDewpointWater temp
2017-Nov-24 01:52N 36°02' E 026°56'3 8.0
2017-Nov-24 01:30N 36°04' E 026°53'4 8.0
2017-Nov-24 00:59N 36°07' E 026°49'5 8.0
2017-Nov-24 00:23N 36°10' E 026°44'3 7.7
2017-Nov-23 23:59N 36°12' E 026°41'4 7.9
2017-Nov-23 23:28N 36°14' E 026°37'4 8.0
2017-Nov-23 23:00N 36°16' E 026°34'4 8.0
2017-Nov-23 22:30N 36°19' E 026°30'4 7.7
2017-Nov-23 22:00N 36°21' E 026°26'4 7.8
2017-Nov-23 21:30N 36°23' E 026°22'4 8.0
2017-Nov-23 21:01N 36°26' E 026°18'4 7.6
2017-Nov-23 20:30N 36°28' E 026°14'4 7.5
2017-Nov-23 20:00N 36°30' E 026°10'4 7.5
2017-Nov-23 19:31N 36°32' E 026°06'4 7.5
2017-Nov-23 19:00N 36°34' E 026°03'4 7.5
2017-Nov-23 18:30N 36°36' E 025°59'4 7.5
2017-Nov-23 18:00N 36°38' E 025°55'4 7.3
2017-Nov-23 17:30N 36°40' E 025°51'4 7.3
2017-Nov-23 17:01N 36°42' E 025°47'4 7.4
2017-Nov-23 16:30N 36°44' E 025°43'4 7.5
2017-Nov-23 16:00N 36°46' E 025°39'4 7.6
2017-Nov-23 15:30N 36°48' E 025°35'4 7.4
2017-Nov-23 15:00N 36°50' E 025°31'4 7.5
2017-Nov-23 14:31N 36°53' E 025°28'4 7.8
2017-Nov-23 14:01N 36°56' E 025°25'4 7.8
2017-Nov-23 13:30N 36°59' E 025°22'4 7.6
2017-Nov-23 13:00N 37°03' E 025°20'4 7.7
2017-Nov-23 12:30N 37°06' E 025°19'4 7.6
2017-Nov-23 12:00N 37°10' E 025°17'4 7.1
2017-Nov-23 11:30N 37°10' E 025°13'4 7.6
2017-Nov-23 10:58N 37°07' E 025°09'8 0.7
2017-Nov-22 23:45N 37°07' E 025°19'2 8.6
2017-Nov-22 23:31N 37°05' E 025°20'4 8.6
2017-Nov-22 23:00N 37°00' E 025°21'4 8.6
2017-Nov-22 22:30N 36°57' E 025°24'4 7.9
2017-Nov-22 22:00N 36°55' E 025°28'4 8.6
2017-Nov-22 21:30N 36°55' E 025°34'2 3.5
2017-Nov-22 20:57N 36°56' E 025°36'0 0.0
2017-Nov-22 20:30N 36°56' E 025°36'0 0.0
2017-Nov-22 20:00N 36°56' E 025°36'0 0.0
2017-Nov-22 19:30N 36°56' E 025°36'  
2017-Nov-19 18:24N 37°05' E 025°09'0 0.1
2017-Nov-19 14:42N 37°05' E 025°08'1 4.0
2017-Nov-19 14:30N 37°06' E 025°07'5 7.8
2017-Nov-19 13:53N 37°09' E 025°11'3 7.6
2017-Nov-19 13:30N 37°12' E 025°13'4 7.3
2017-Nov-19 13:00N 37°15' E 025°15'4 7.9
2017-Nov-19 12:30N 37°19' E 025°16'4 7.8
2017-Nov-19 12:00N 37°23' E 025°17'4 7.4
2017-Nov-19 11:30N 37°27' E 025°17'2 3.7
2017-Nov-19 10:58N 37°28' E 025°20'0 0.0
2017-Nov-19 10:28N 37°28' E 025°20'0 0.0
2017-Nov-19 09:58N 37°28' E 025°20'0 0.0
2017-Nov-19 09:28N 37°28' E 025°20'0 0.0
2017-Nov-19 08:58N 37°28' E 025°20'0 0.0
2017-Nov-19 08:28N 37°28' E 025°20'0 0.0
2017-Nov-19 07:58N 37°28' E 025°20'0 0.0
2017-Nov-19 07:28N 37°28' E 025°20'0 0.0
2017-Nov-19 06:58N 37°28' E 025°20'0 0.0
2017-Nov-19 06:28N 37°28' E 025°20'0 0.0
2017-Nov-19 05:58N 37°28' E 025°20'0 0.0
2017-Nov-19 05:28N 37°28' E 025°20'0 0.0
2017-Nov-19 04:58N 37°28' E 025°20'0 0.0
2017-Nov-19 04:28N 37°28' E 025°20'0 0.0
2017-Nov-19 03:58N 37°28' E 025°20'0 0.0
2017-Nov-19 03:28N 37°28' E 025°20'0 0.0
2017-Nov-19 02:58N 37°28' E 025°20'0 0.0
2017-Nov-19 02:01N 37°28' E 025°20'0 0.1
2017-Nov-19 01:58N 37°28' E 025°20'0 0.0
2017-Nov-19 01:28N 37°28' E 025°20'0 0.0
2017-Nov-19 00:58N 37°28' E 025°20'0 0.0
2017-Nov-19 00:28N 37°28' E 025°20'0 0.0
2017-Nov-18 23:58N 37°28' E 025°20'0 0.0
2017-Nov-18 23:28N 37°28' E 025°20'0 0.0
2017-Nov-18 22:58N 37°28' E 025°20'0 0.0
2017-Nov-18 22:28N 37°28' E 025°20'0 0.0
2017-Nov-18 21:58N 37°28' E 025°20'0 0.0
2017-Nov-18 21:28N 37°28' E 025°20'0 0.0
2017-Nov-18 20:58N 37°28' E 025°20'0 0.0
2017-Nov-18 20:28N 37°28' E 025°20'0 0.0
2017-Nov-18 19:58N 37°28' E 025°20'0 0.0
2017-Nov-18 19:28N 37°28' E 025°20'0 0.0
2017-Nov-18 18:58N 37°28' E 025°20'0 0.0
2017-Nov-18 18:28N 37°28' E 025°20'0 0.0
2017-Nov-18 17:52N 37°28' E 025°20'0 0.0
2017-Nov-18 17:28N 37°28' E 025°20'0 0.0
2017-Nov-18 16:58N 37°28' E 025°20'0 0.0
2017-Nov-18 16:28N 37°28' E 025°20'0 0.0
2017-Nov-18 15:55N 37°28' E 025°20'0 0.0
2017-Nov-18 15:28N 37°28' E 025°20'0 0.0
2017-Nov-18 14:58N 37°28' E 025°20'0 0.0
2017-Nov-18 14:28N 37°28' E 025°20'0 0.1
2017-Nov-18 13:56N 37°28' E 025°20'2 5.1
2017-Nov-18 13:30N 37°26' E 025°17'4 7.8
2017-Nov-18 13:00N 37°22' E 025°17'4 7.2
2017-Nov-18 12:30N 37°19' E 025°16'4 7.3
2017-Nov-18 12:00N 37°16' E 025°14'4 7.4
2017-Nov-18 11:30N 37°12' E 025°12'4 7.3
2017-Nov-18 10:54N 37°09' E 025°09'3 7.0
2017-Nov-18 10:30N 37°06' E 025°08'1 0.1
2017-Nov-17 19:41N 37°05' E 025°08'1 8.1
2017-Nov-17 19:30N 37°06' E 025°07'4 8.2
2017-Nov-17 19:00N 37°07' E 025°02'4 7.9
2017-Nov-17 18:30N 37°08' E 024°57'62 7.9
2017-Nov-17 10:41N 37°37' E 023°48'2 8.2
2017-Nov-17 10:28N 37°38' E 023°46'4 8.1
2017-Nov-17 10:00N 37°41' E 023°43'4 7.5
2017-Nov-17 09:30N 37°44' E 023°40'4 7.3
2017-Nov-17 09:00N 37°47' E 023°38'4 7.4
2017-Nov-17 08:30N 37°50' E 023°36'4 7.9
2017-Nov-17 08:00N 37°54' E 023°35'3 7.0
2017-Nov-17 07:30N 37°57' E 023°33'3 6.5
2017-Nov-17 07:00N 38°01' E 023°33'2 4.1
2017-Nov-17 06:30N 38°02' E 023°31'0 0.0
2017-Nov-17 06:00N 38°02' E 023°31'0 0.0
2017-Nov-17 05:30N 38°02' E 023°31'0 0.0
2017-Nov-17 05:00N 38°02' E 023°31'0 0.0
2017-Nov-17 04:30N 38°02' E 023°31'0 0.0
2017-Nov-17 04:00N 38°02' E 023°31'0 0.0
2017-Nov-17 03:30N 38°02' E 023°31'0 0.0
2017-Nov-17 03:00N 38°02' E 023°31'0 0.0
2017-Nov-17 02:30N 38°02' E 023°31'0 0.0
2017-Nov-17 02:00N 38°02' E 023°31'0 0.0
2017-Nov-17 01:30N 38°02' E 023°31'0 0.0
2017-Nov-17 01:00N 38°02' E 023°31'0 0.0
2017-Nov-17 00:30N 38°02' E 023°31'0 0.0
2017-Nov-17 00:00N 38°02' E 023°31'0 0.0
2017-Nov-16 23:30N 38°02' E 023°31'0 0.0
2017-Nov-16 23:00N 38°02' E 023°31'0 0.0
2017-Nov-16 22:30N 38°02' E 023°31'0 0.0
2017-Nov-16 22:00N 38°02' E 023°31'0 0.0
2017-Nov-16 21:30N 38°02' E 023°31'0 0.0
2017-Nov-16 20:54N 38°02' E 023°31'0 0.0
2017-Nov-16 20:27N 38°02' E 023°31'0 0.0
2017-Nov-16 20:00N 38°02' E 023°31'0 0.0
2017-Nov-16 19:30N 38°02' E 023°31'0 0.0
2017-Nov-16 19:00N 38°02' E 023°31'0 0.0
2017-Nov-16 18:30N 38°02' E 023°31'0 0.0
2017-Nov-16 18:00N 38°02' E 023°31'0 0.0
2017-Nov-16 17:30N 38°02' E 023°31'0 0.0
2017-Nov-16 17:00N 38°02' E 023°31'0 0.0
2017-Nov-16 16:30N 38°02' E 023°31'0 0.0
2017-Nov-16 15:57N 38°02' E 023°31'0 0.0
2017-Nov-16 15:30N 38°02' E 023°31'0 0.0
2017-Nov-16 15:00N 38°02' E 023°31'0 0.0
2017-Nov-16 14:30N 38°02' E 023°31'0 0.0
2017-Nov-16 14:00N 38°02' E 023°31'0 0.0
2017-Nov-16 13:30N 38°02' E 023°31'0 0.0
2017-Nov-16 13:00N 38°02' E 023°31'0 0.0
2017-Nov-16 12:30N 38°02' E 023°31'0 0.0
2017-Nov-16 12:00N 38°02' E 023°31'0 0.3
2017-Nov-16 11:28N 38°02' E 023°32'0 0.3
2017-Nov-16 10:58N 38°02' E 023°31'0 0.0
2017-Nov-16 10:28N 38°02' E 023°31'0 0.0
2017-Nov-16 09:58N 38°02' E 023°31'0 0.0
2017-Nov-16 09:25N 38°02' E 023°32'0 0.1
2017-Nov-16 08:58N 38°02' E 023°32'0 0.0
2017-Nov-16 08:28N 38°02' E 023°32'0 0.0
2017-Nov-16 07:58N 38°02' E 023°32'0 0.1
2017-Nov-16 07:25N 38°02' E 023°31'0 0.1
2017-Nov-16 06:58N 38°02' E 023°31'0 0.0
2017-Nov-16 06:28N 38°02' E 023°31'0 0.0
2017-Nov-16 05:55N 38°02' E 023°31'0 0.0
2017-Nov-16 05:28N 38°02' E 023°31'0 0.0
2017-Nov-16 04:58N 38°02' E 023°31'0 0.0
2017-Nov-16 04:28N 38°02' E 023°31'0 0.0
2017-Nov-16 03:58N 38°02' E 023°31'0 0.0
2017-Nov-16 03:28N 38°02' E 023°31'0 0.0
2017-Nov-16 02:58N 38°02' E 023°31'0 0.0
2017-Nov-16 02:28N 38°02' E 023°31'0 0.0
2017-Nov-16 01:58N 38°02' E 023°31'0 0.0
2017-Nov-16 01:28N 38°02' E 023°31'0 0.0
2017-Nov-16 00:58N 38°02' E 023°32'0 0.1
2017-Nov-16 00:28N 38°02' E 023°31'0 0.0
2017-Nov-15 23:58N 38°02' E 023°31'1 3.0
2017-Nov-15 23:30N 38°01' E 023°30'4 7.5
2017-Nov-15 23:00N 37°60' E 023°26'3 5.1
2017-Nov-15 22:30N 37°57' E 023°25'4 7.0
2017-Nov-15 22:00N 37°54' E 023°23'4 7.6
2017-Nov-15 21:30N 37°52' E 023°27'4 7.7
2017-Nov-15 21:00N 37°51' E 023°31'4 7.4
2017-Nov-15 20:30N 37°51' E 023°36'3 6.7
2017-Nov-15 20:00N 37°49' E 023°40'4 7.8
2017-Nov-15 19:30N 37°46' E 023°42'4 7.9
2017-Nov-15 19:00N 37°42' E 023°45'  

Dump ship's entire track history